Time;durP1;ratioP1;P1;durP2;ratioP2;P2;SDS_P1;SDS_P2;PMS_P1;PMS_P2;Temp;Humidity;BMP_temperature;BMP_pressure;BME280_temperature;BME280_humidity;BME280_pressure;Samples;Min_cycle;Max_cycle;Signal;HPM_P1;HPM_P2
2023/02/15 00:01:27;;;;;;;41.53;16.65;;;1.20;99.90;;;;;;5084504;28;20116;-58
2023/02/15 00:03:52;;;;;;;41.05;16.15;;;1.10;99.90;;;;;;5085075;28;20112;-58
2023/02/15 00:06:18;;;;;;;42.15;17.27;;;1.00;99.90;;;;;;5083929;28;20039;-57
2023/02/15 00:08:44;;;;;;;38.25;15.73;;;0.90;99.90;;;;;;5059770;28;20041;-56
2023/02/15 00:11:12;;;;;;;41.45;16.73;;;0.80;99.90;;;;;;5073513;28;20300;-58
2023/02/15 00:13:40;;;;;;;48.72;18.90;;;0.70;99.90;;;;;;5066977;28;20024;-59
2023/02/15 00:16:08;;;;;;;50.53;19.50;;;0.60;99.90;;;;;;5088459;28;20021;-60
2023/02/15 00:18:34;;;;;;;45.80;16.88;;;0.60;99.90;;;;;;5045383;28;20029;-56
2023/02/15 00:21:04;;;;;;;44.53;17.33;;;0.50;99.90;;;;;;5085078;28;20016;-58
2023/02/15 00:23:29;;;;;;;47.55;17.58;;;0.40;99.90;;;;;;5064614;28;20066;-60
2023/02/15 00:26:09;;;;;;;47.85;16.27;;;0.30;99.90;;;;;;5087609;28;20076;-59
2023/02/15 00:28:35;;;;;;;42.90;16.85;;;0.30;99.90;;;;;;5065101;28;20691;-58
2023/02/15 00:31:04;;;;;;;41.33;15.68;;;0.20;99.90;;;;;;5087619;28;20036;-58
2023/02/15 00:33:30;;;;;;;40.92;15.25;;;0.10;99.90;;;;;;5048743;28;20099;-58
2023/02/15 00:35:57;;;;;;;43.53;16.08;;;0.00;99.90;;;;;;5067716;28;20450;-59
2023/02/15 00:38:23;;;;;;;37.17;14.95;;;0.00;99.90;;;;;;5068281;28;20029;-58
2023/02/15 00:40:53;;;;;;;35.47;13.95;;;0.00;99.90;;;;;;5086344;28;20082;-57
2023/02/15 00:43:18;;;;;;;45.70;16.20;;;-0.10;99.90;;;;;;5084082;28;20112;-58
2023/02/15 00:45:45;;;;;;;41.40;16.98;;;-0.10;99.90;;;;;;5076781;28;20481;-58
2023/02/15 00:48:11;;;;;;;46.58;16.00;;;-0.20;99.90;;;;;;5078183;28;20055;-59
2023/02/15 00:50:36;;;;;;;46.30;15.73;;;-0.20;99.90;;;;;;5071356;28;20079;-60
2023/02/15 00:53:02;;;;;;;31.85;13.57;;;-0.30;99.90;;;;;;5073656;28;20123;-58
2023/02/15 00:55:27;;;;;;;42.15;15.13;;;-0.30;99.90;;;;;;5066666;28;20098;-58
2023/02/15 00:57:53;;;;;;;41.58;14.57;;;-0.40;99.90;;;;;;5088413;28;20092;-59
2023/02/15 01:00:18;;;;;;;41.47;15.05;;;-0.40;99.90;;;;;;5049000;28;20521;-58
2023/02/15 01:02:44;;;;;;;36.60;13.93;;;-0.50;99.90;;;;;;5068522;28;20035;-59
2023/02/15 01:05:09;;;;;;;40.03;14.75;;;-0.50;99.90;;;;;;5073100;28;20024;-59
2023/02/15 01:07:35;;;;;;;35.47;13.80;;;-0.60;99.90;;;;;;5087702;28;20550;-58
2023/02/15 01:10:00;;;;;;;36.50;14.68;;;-0.60;99.90;;;;;;5069916;28;20029;-58
2023/02/15 01:12:26;;;;;;;39.67;14.75;;;-0.70;99.90;;;;;;5087029;28;20526;-56
2023/02/15 01:14:51;;;;;;;43.75;16.40;;;-0.70;99.90;;;;;;5070056;28;20029;-59
2023/02/15 01:17:17;;;;;;;52.20;16.63;;;-0.80;99.90;;;;;;5086946;28;20112;-58
2023/02/15 01:19:42;;;;;;;39.25;14.23;;;-0.80;99.90;;;;;;5069957;28;20035;-55
2023/02/15 01:22:08;;;;;;;34.00;12.70;;;-0.80;99.90;;;;;;5086852;28;20016;-58
2023/02/15 01:24:33;;;;;;;33.88;12.93;;;-0.90;99.90;;;;;;5089586;28;20024;-59
2023/02/15 01:26:59;;;;;;;39.17;13.90;;;-0.90;99.90;;;;;;5067724;28;20439;-59
2023/02/15 01:29:24;;;;;;;48.28;15.20;;;-0.90;99.90;;;;;;5067512;28;20031;-59
2023/02/15 01:31:50;;;;;;;40.92;14.05;;;-0.90;99.90;;;;;;5086739;28;20081;-58
2023/02/15 01:34:16;;;;;;;46.97;16.38;;;-1.00;99.90;;;;;;5089367;28;20149;-57
2023/02/15 01:36:41;;;;;;;42.20;15.15;;;-1.00;99.90;;;;;;5067573;28;20037;-58
2023/02/15 01:39:07;;;;;;;42.38;14.90;;;-1.00;99.90;;;;;;5068836;28;20094;-59
2023/02/15 01:41:33;;;;;;;45.97;16.70;;;-1.10;99.90;;;;;;5086505;28;20101;-60
2023/02/15 01:44:01;;;;;;;32.75;13.57;;;-1.10;99.90;;;;;;5089148;28;20472;-58
2023/02/15 01:46:47;;;;;;;51.40;16.75;;;-1.10;99.90;;;;;;5066878;28;20048;-58
2023/02/15 01:49:20;;;;;;;43.08;15.05;;;-1.20;99.90;;;;;;5068656;28;20085;-57
2023/02/15 01:51:48;;;;;;;44.40;14.77;;;-1.20;99.90;;;;;;5086838;28;20051;-59
2023/02/15 01:54:35;;;;;;;42.03;16.55;;;-1.20;99.90;;;;;;5089047;28;20032;-59
2023/02/15 01:57:05;;;;;;;42.78;15.38;;;-1.20;99.90;;;;;;5066803;28;20107;-59
2023/02/15 01:59:33;;;;;;;41.42;15.25;;;-1.20;99.90;;;;;;5068685;28;20583;-58
2023/02/15 02:02:00;;;;;;;41.85;16.70;;;-1.20;99.90;;;;;;5086382;28;20115;-59
2023/02/15 02:04:41;;;;;;;45.22;16.40;;;-1.30;99.90;;;;;;5088717;28;20134;-58
2023/02/15 02:07:07;;;;;;;43.15;15.73;;;-1.30;99.90;;;;;;5056196;28;20081;-58
2023/02/15 02:09:33;;;;;;;49.72;16.15;;;-1.40;99.90;;;;;;5088794;28;20090;-58
2023/02/15 02:11:59;;;;;;;45.35;16.85;;;-1.40;99.90;;;;;;5066841;28;20017;-59
2023/02/15 02:14:25;;;;;;;50.25;16.27;;;-1.40;99.90;;;;;;5068535;28;20028;-59
2023/02/15 02:17:15;;;;;;;47.35;16.60;;;-1.40;99.90;;;;;;5084555;28;20032;-59
2023/02/15 02:19:52;;;;;;;39.42;15.63;;;-1.40;99.90;;;;;;5088502;28;20119;-58
2023/02/15 02:22:53;;;;;;;40.95;15.63;;;-1.40;99.90;;;;;;5066362;28;20112;-58
2023/02/15 02:25:50;;;;;;;33.22;13.02;;;-1.50;99.90;;;;;;5054679;28;20499;-59
2023/02/15 02:28:49;;;;;;;46.83;16.27;;;-1.50;99.90;;;;;;5088077;28;20440;-57
2023/02/15 02:31:21;;;;;;;46.80;16.33;;;-1.50;99.90;;;;;;5054168;28;20091;-60
2023/02/15 02:34:13;;;;;;;47.80;17.08;;;-1.50;99.90;;;;;;5086062;28;20028;-57
2023/02/15 02:36:52;;;;;;;50.40;15.98;;;-1.50;99.90;;;;;;5061234;28;20024;-59
2023/02/15 02:39:39;;;;;;;41.03;14.32;;;-1.50;99.90;;;;;;5048205;28;20029;-59
2023/02/15 02:42:18;;;;;;;33.65;13.90;;;-1.50;99.90;;;;;;5064648;28;20154;-59
2023/02/15 02:44:49;;;;;;;38.45;13.73;;;-1.50;99.90;;;;;;5047910;28;20036;-59
2023/02/15 02:47:26;;;;;;;41.33;14.50;;;-1.50;99.90;;;;;;5048005;28;20045;-58
2023/02/15 02:49:58;;;;;;;45.92;15.25;;;-1.60;99.90;;;;;;5046839;28;20021;-60
2023/02/15 02:52:45;;;;;;;44.70;15.75;;;-1.60;99.90;;;;;;5088362;28;20031;-59
2023/02/15 02:55:40;;;;;;;40.92;13.35;;;-1.60;99.90;;;;;;5052098;28;20046;-59
2023/02/15 02:58:15;;;;;;;43.30;15.02;;;-1.60;99.90;;;;;;5088210;28;20380;-58
2023/02/15 03:01:15;;;;;;;42.23;14.80;;;-1.60;99.90;;;;;;5058886;28;20032;-59
2023/02/15 03:03:51;;;;;;;43.88;14.77;;;-1.60;99.90;;;;;;5087857;28;20277;-60
2023/02/15 03:06:23;;;;;;;53.20;17.30;;;-1.70;99.90;;;;;;5064484;28;20040;-60
2023/02/15 03:08:54;;;;;;;38.85;14.88;;;-1.60;99.90;;;;;;5088013;28;20051;-57
2023/02/15 03:11:19;;;;;;;54.50;16.92;;;-1.70;99.90;;;;;;5048054;28;20090;-58
2023/02/15 03:13:47;;;;;;;47.13;16.77;;;-1.70;99.90;;;;;;5086091;28;20032;-58
2023/02/15 03:16:28;;;;;;;47.30;17.63;;;-1.70;99.90;;;;;;5068142;28;20036;-63
2023/02/15 03:19:01;;;;;;;43.50;15.35;;;-1.70;99.90;;;;;;5047953;28;20060;-63
2023/02/15 03:21:57;;;;;;;52.30;16.60;;;-1.80;99.90;;;;;;5047666;28;20060;-64
2023/02/15 03:24:29;;;;;;;46.72;15.40;;;-1.80;99.90;;;;;;5088169;28;20030;-50
2023/02/15 03:26:55;;;;;;;43.40;15.27;;;-1.80;99.90;;;;;;5055265;28;20089;-53
2023/02/15 03:29:25;;;;;;;40.53;14.57;;;-1.80;99.90;;;;;;5088055;28;20027;-63
2023/02/15 03:31:56;;;;;;;42.90;14.20;;;-1.80;99.90;;;;;;5064185;28;20028;-63
2023/02/15 03:34:22;;;;;;;35.05;13.25;;;-1.90;99.90;;;;;;5067781;28;20028;-63
2023/02/15 03:36:57;;;;;;;44.72;16.20;;;-1.90;99.90;;;;;;5085257;28;20032;-63
2023/02/15 03:39:35;;;;;;;32.55;13.10;;;-1.90;99.90;;;;;;5088063;28;20045;-63
2023/02/15 03:42:04;;;;;;;40.20;14.65;;;-1.90;99.90;;;;;;5056998;28;20035;-62
2023/02/15 03:44:31;;;;;;;46.95;16.90;;;-1.90;99.90;;;;;;5087767;28;20024;-63
2023/02/15 03:47:08;;;;;;;40.97;14.93;;;-1.90;99.90;;;;;;5065865;28;20111;-64
2023/02/15 03:50:03;;;;;;;51.10;16.65;;;-1.90;99.90;;;;;;5067824;28;20231;-63
2023/02/15 03:52:31;;;;;;;48.33;17.63;;;-1.90;99.90;;;;;;5066908;28;20625;-63
2023/02/15 03:54:57;;;;;;;50.53;16.10;;;-1.90;99.90;;;;;;5071500;28;20033;-64
2023/02/15 04:03:29;;;;;;;52.47;17.38;;;-1.90;99.90;;;;;;5078284;28;20506;-63
2023/02/15 04:05:55;;;;;;;44.20;16.00;;;-1.90;99.90;;;;;;5069262;28;20452;-63
2023/02/15 04:10:51;;;;;;;53.13;18.73;;;-1.90;99.90;;;;;;5053033;28;20044;-64
2023/02/15 04:11:06;;;;;;;39.70;13.35;;;-2.00;99.90;;;;;;5053009;28;20037;-63
2023/02/15 04:13:33;;;;;;;59.63;19.45;;;-2.00;99.90;;;;;;5071072;28;20032;-64
2023/02/15 04:16:05;;;;;;;51.67;17.13;;;-2.00;99.90;;;;;;5090757;28;20089;-64
2023/02/15 04:26:44;;;;;;;49.42;16.35;;;-2.10;99.90;;;;;;5059412;28;20453;-63
2023/02/15 04:29:09;;;;;;;45.15;14.88;;;-2.10;99.90;;;;;;5091017;28;20099;-64
2023/02/15 04:31:35;;;;;;;50.15;16.25;;;-2.10;99.90;;;;;;5069397;28;20492;-64
2023/02/15 04:34:00;;;;;;;40.92;14.63;;;-2.10;99.90;;;;;;5070745;28;20032;-64
2023/02/15 04:36:26;;;;;;;52.75;16.90;;;-2.10;99.90;;;;;;5088092;28;20491;-64
2023/02/15 04:38:51;;;;;;;50.70;15.07;;;-2.10;99.90;;;;;;5089475;28;20032;-64
2023/02/15 04:41:17;;;;;;;46.97;15.50;;;-2.20;99.90;;;;;;5069241;28;20025;-64
2023/02/15 04:43:42;;;;;;;50.72;17.17;;;-2.20;99.90;;;;;;5070643;28;20017;-64
2023/02/15 04:46:08;;;;;;;53.30;16.20;;;-2.20;99.90;;;;;;5087506;28;20036;-63
2023/02/15 04:48:33;;;;;;;45.25;13.70;;;-2.20;99.90;;;;;;5050618;28;20147;-64
2023/02/15 04:50:59;;;;;;;49.17;17.55;;;-2.20;99.90;;;;;;5081589;28;20116;-64
2023/02/15 04:53:24;;;;;;;46.28;16.58;;;-2.30;99.90;;;;;;5070145;28;20392;-64
2023/02/15 04:55:50;;;;;;;49.42;16.55;;;-2.30;99.90;;;;;;5087640;28;20036;-63
2023/02/15 04:58:15;;;;;;;58.30;20.50;;;-2.30;99.90;;;;;;5090589;28;20554;-64
2023/02/15 05:00:40;;;;;;;60.08;18.80;;;-2.20;99.90;;;;;;5068739;28;20028;-64
2023/02/15 05:03:06;;;;;;;51.60;17.98;;;-2.30;99.90;;;;;;5067952;28;20500;-65
2023/02/15 05:05:31;;;;;;;45.35;17.38;;;-2.20;99.90;;;;;;5073474;28;20036;-64
2023/02/15 05:07:57;;;;;;;55.13;18.77;;;-2.20;99.90;;;;;;5054773;28;20559;-64
2023/02/15 05:10:22;;;;;;;53.08;17.13;;;-2.20;99.90;;;;;;5088989;28;20035;-64
2023/02/15 05:12:48;;;;;;;55.38;19.08;;;-2.20;99.90;;;;;;5056696;28;20029;-65
2023/02/15 05:15:13;;;;;;;53.38;17.05;;;-2.20;99.90;;;;;;5069169;28;20037;-64
2023/02/15 05:17:39;;;;;;;49.10;16.60;;;-2.20;99.90;;;;;;5087139;28;20028;-64
2023/02/15 05:20:05;;;;;;;55.58;16.33;;;-2.20;99.90;;;;;;5070231;28;20039;-64
2023/02/15 05:22:31;;;;;;;54.15;19.70;;;-2.20;99.90;;;;;;5087367;28;20062;-64
2023/02/15 05:30:25;;;;;;;62.47;21.38;;;-2.10;99.90;;;;;;5049825;28;20444;-64
2023/02/15 05:32:50;;;;;;;64.88;21.63;;;-2.10;99.90;;;;;;5074114;28;20052;-64
2023/02/15 05:35:16;;;;;;;54.08;19.88;;;-2.10;99.90;;;;;;5088884;28;20042;-65
2023/02/15 05:37:41;;;;;;;67.93;23.13;;;-2.00;99.90;;;;;;5057015;28;20029;-65
2023/02/15 05:40:08;;;;;;;61.50;22.10;;;-2.00;99.90;;;;;;5068354;28;20040;-64
2023/02/15 05:42:34;;;;;;;53.42;20.10;;;-2.00;99.90;;;;;;5086977;28;20062;-64
2023/02/15 05:44:59;;;;;;;44.75;16.70;;;-2.00;99.90;;;;;;5069786;28;20060;-65
2023/02/15 05:47:25;;;;;;;56.38;18.75;;;-2.00;99.90;;;;;;5069011;28;20717;-64
2023/02/15 05:49:50;;;;;;;44.22;17.23;;;-2.00;99.90;;;;;;5085026;28;20125;-65
2023/02/15 05:52:16;;;;;;;56.97;19.83;;;-2.00;99.90;;;;;;5066067;28;20139;-65
2023/02/15 05:54:41;;;;;;;56.10;19.92;;;-2.00;99.90;;;;;;5068990;28;20028;-65
2023/02/15 05:57:07;;;;;;;56.65;20.55;;;-1.90;99.90;;;;;;5068661;28;20040;-64
2023/02/15 05:59:32;;;;;;;54.70;19.85;;;-1.80;99.90;;;;;;5088627;28;20126;-65
2023/02/15 06:01:58;;;;;;;77.30;27.02;;;-1.80;99.90;;;;;;5050327;28;20477;-64
2023/02/15 06:04:23;;;;;;;70.22;24.13;;;-1.70;99.90;;;;;;5068100;28;20024;-57
2023/02/15 06:06:49;;;;;;;64.28;23.27;;;-1.60;99.90;;;;;;5067788;28;20400;-64
2023/02/15 06:09:14;;;;;;;71.47;24.05;;;-1.50;99.90;;;;;;5088956;28;20572;-66
2023/02/15 06:11:40;;;;;;;54.15;18.08;;;-1.40;99.90;;;;;;5053829;28;20032;-64
2023/02/15 06:14:06;;;;;;;60.40;21.05;;;-1.40;99.90;;;;;;5068038;28;20034;-64
2023/02/15 06:16:31;;;;;;;61.38;20.45;;;-1.30;99.90;;;;;;5073197;28;20102;-64
2023/02/15 06:18:58;;;;;;;63.17;23.05;;;-1.20;99.90;;;;;;5065597;28;20031;-64
2023/02/15 06:21:24;;;;;;;60.95;20.35;;;-1.20;99.90;;;;;;5065901;28;20134;-64
2023/02/15 06:23:49;;;;;;;61.53;21.33;;;-1.10;99.90;;;;;;5068153;28;20103;-64
2023/02/15 06:26:15;;;;;;;61.65;21.30;;;-1.10;99.90;;;;;;5086563;28;20038;-64
2023/02/15 06:28:41;;;;;;;74.05;26.85;;;-1.10;99.90;;;;;;5051862;28;20033;-64
2023/02/15 06:31:06;;;;;;;57.65;23.08;;;-1.00;99.90;;;;;;5066385;28;20037;-64
2023/02/15 06:33:33;;;;;;;55.63;23.10;;;-0.90;99.90;;;;;;5071620;28;20115;-65
2023/02/15 06:35:59;;;;;;;75.80;28.88;;;-0.90;99.90;;;;;;5086287;28;20034;-64
2023/02/15 06:38:25;;;;;;;74.88;27.30;;;-0.80;99.90;;;;;;5053700;28;20050;-64
2023/02/15 06:40:50;;;;;;;63.80;24.38;;;-0.80;99.90;;;;;;5066111;28;20029;-64
2023/02/15 06:43:16;;;;;;;66.57;26.50;;;-0.70;99.90;;;;;;5084581;28;20028;-64
2023/02/15 06:45:42;;;;;;;79.63;30.00;;;-0.60;99.90;;;;;;5067384;28;20112;-64
2023/02/15 06:48:07;;;;;;;79.45;28.95;;;-0.60;99.90;;;;;;5083959;28;20069;-64
2023/02/15 06:50:34;;;;;;;69.18;28.55;;;-0.50;99.90;;;;;;5067158;28;20020;-64
2023/02/15 06:52:59;;;;;;;74.55;26.67;;;-0.50;99.90;;;;;;5084258;28;20070;-63
2023/02/15 06:55:25;;;;;;;88.20;33.08;;;-0.50;99.90;;;;;;5086569;28;20048;-64
2023/02/15 06:57:51;;;;;;;73.78;28.67;;;-0.50;99.90;;;;;;5065553;28;20443;-64
2023/02/15 07:00:18;;;;;;;79.43;31.88;;;-0.40;99.90;;;;;;5066646;28;20075;-64
2023/02/15 07:02:43;;;;;;;75.28;27.63;;;-0.40;99.90;;;;;;5084307;28;20510;-63
2023/02/15 07:05:09;;;;;;;102.53;31.92;;;-0.30;99.90;;;;;;5067165;28;20028;-64
2023/02/15 07:07:35;;;;;;;76.80;26.27;;;-0.30;99.90;;;;;;5070939;28;20041;-64
2023/02/15 07:10:00;;;;;;;119.75;33.95;;;-0.20;99.90;;;;;;5047049;28;20028;-65
2023/02/15 07:12:41;;;;;;;135.88;33.67;;;-0.20;99.90;;;;;;5063877;28;20040;-64
2023/02/15 07:15:08;;;;;;;109.05;34.88;;;-0.20;99.90;;;;;;5067090;28;20104;-53
2023/02/15 07:17:34;;;;;;;81.07;30.50;;;-0.20;99.90;;;;;;5084524;28;20515;-52
2023/02/15 07:20:00;;;;;;;89.68;29.83;;;-0.20;99.90;;;;;;5087159;28;20032;-54
2023/02/15 07:22:25;;;;;;;89.60;29.67;;;-0.20;99.90;;;;;;5065472;28;20468;-52
2023/02/15 07:24:54;;;;;;;76.72;27.50;;;-0.10;99.90;;;;;;5066543;28;20070;-54
2023/02/15 07:27:20;;;;;;;87.07;30.98;;;-0.10;99.90;;;;;;5086840;28;20035;-53
2023/02/15 07:29:45;;;;;;;81.43;28.13;;;-0.10;99.90;;;;;;5091009;28;20032;-54
2023/02/15 07:32:11;;;;;;;77.97;26.85;;;0.00;99.90;;;;;;5069324;28;20089;-53
2023/02/15 07:34:36;;;;;;;72.93;25.17;;;0.00;99.90;;;;;;5070793;28;20040;-53
2023/02/15 07:37:02;;;;;;;85.57;26.10;;;0.10;99.90;;;;;;5088157;28;20024;-54
2023/02/15 07:39:27;;;;;;;78.60;26.45;;;0.10;99.90;;;;;;5091081;28;20032;-53
2023/02/15 07:41:53;;;;;;;74.85;26.05;;;0.20;99.90;;;;;;5069136;28;20090;-50
2023/02/15 07:44:18;;;;;;;70.53;25.88;;;0.30;99.90;;;;;;5070665;28;20033;-55
2023/02/15 07:46:44;;;;;;;67.95;24.70;;;0.40;99.90;;;;;;5089885;28;20043;-54
2023/02/15 07:49:09;;;;;;;76.75;25.33;;;0.30;99.90;;;;;;5079647;28;20054;-53
2023/02/15 07:51:35;;;;;;;74.82;23.55;;;0.40;99.90;;;;;;5070328;28;20036;-52
2023/02/15 07:54:00;;;;;;;73.97;25.73;;;0.50;99.90;;;;;;5069931;28;20104;-51
2023/02/15 07:56:26;;;;;;;68.40;26.90;;;0.50;99.90;;;;;;5071373;28;20075;-52
2023/02/15 07:58:51;;;;;;;84.65;29.67;;;0.40;99.90;;;;;;5090644;28;20514;-52
2023/02/15 08:01:26;;;;;;;123.95;31.23;;;0.30;99.90;;;;;;5056601;28;20040;-54
2023/02/15 08:03:53;;;;;;;95.75;31.50;;;0.30;99.90;;;;;;5051411;28;20032;-52
2023/02/15 08:06:19;;;;;;;70.90;27.38;;;0.30;99.90;;;;;;5071535;28;20037;-53
2023/02/15 08:08:44;;;;;;;80.78;25.83;;;0.30;99.90;;;;;;5090639;28;20036;-53
2023/02/15 08:11:42;;;;;;;86.57;25.90;;;0.40;99.90;;;;;;5057224;28;20033;-55
2023/02/15 08:14:14;;;;;;;96.20;29.55;;;0.50;99.90;;;;;;5049531;28;20404;-51
2023/02/15 08:16:54;;;;;;;92.03;27.65;;;0.50;99.90;;;;;;5066064;28;20515;-56
2023/02/15 08:19:20;;;;;;;128.52;30.75;;;0.60;99.90;;;;;;5051117;28;20091;-53
2023/02/15 08:21:51;;;;;;;104.65;29.25;;;0.50;99.90;;;;;;5070205;28;20032;-54
2023/02/15 08:24:19;;;;;;;86.57;27.95;;;0.50;99.90;;;;;;5051111;28;20095;-52
2023/02/15 08:26:46;;;;;;;150.27;32.00;;;0.40;99.90;;;;;;5069714;28;20484;-50
2023/02/15 08:29:12;;;;;;;108.63;27.60;;;0.40;99.90;;;;;;5090633;28;20111;-51
2023/02/15 08:31:40;;;;;;;66.00;24.52;;;0.50;99.90;;;;;;5052907;28;20036;-49
2023/02/15 08:34:06;;;;;;;82.40;25.90;;;0.60;99.90;;;;;;5070235;28;20111;-53
2023/02/15 08:36:32;;;;;;;67.43;19.17;;;0.60;99.90;;;;;;5072671;28;20111;-52
2023/02/15 08:38:59;;;;;;;61.08;21.13;;;0.70;99.90;;;;;;5088889;28;20126;-49
2023/02/15 08:41:29;;;;;;;85.75;23.38;;;0.90;99.90;;;;;;5054646;28;20029;-53
2023/02/15 08:43:56;;;;;;;83.18;22.80;;;1.00;99.90;;;;;;5070357;28;20043;-53
2023/02/15 08:46:24;;;;;;;74.38;22.90;;;1.10;99.90;;;;;;5074014;28;20116;-52
2023/02/15 08:48:50;;;;;;;65.88;22.50;;;1.10;99.90;;;;;;5090207;28;20028;-52
2023/02/15 08:51:18;;;;;;;73.30;25.92;;;1.10;99.90;;;;;;5055761;28;20040;-54
2023/02/15 08:53:48;;;;;;;80.97;23.83;;;1.20;99.90;;;;;;5070102;28;20024;-52
2023/02/15 08:56:15;;;;;;;66.97;22.60;;;1.20;99.90;;;;;;5061942;28;20078;-53
2023/02/15 08:58:41;;;;;;;62.10;22.48;;;1.40;99.90;;;;;;5089834;28;20115;-51
2023/02/15 09:01:12;;;;;;;56.38;21.25;;;1.50;99.90;;;;;;5058175;28;20026;-53
2023/02/15 09:03:38;;;;;;;49.42;19.05;;;1.50;99.90;;;;;;5076502;28;20043;-54
2023/02/15 09:06:05;;;;;;;58.60;23.17;;;1.60;99.90;;;;;;5073546;28;20496;-51
2023/02/15 09:08:30;;;;;;;74.53;24.83;;;1.60;99.90;;;;;;5088881;28;20054;-53
2023/02/15 09:11:06;;;;;;;65.97;25.15;;;1.70;99.90;;;;;;5068419;28;20111;-54
2023/02/15 09:13:31;;;;;;;63.75;24.50;;;1.70;99.90;;;;;;5049987;28;20045;-53
2023/02/15 09:16:04;;;;;;;62.08;22.13;;;1.80;99.90;;;;;;5085146;28;20108;-51
2023/02/15 09:18:33;;;;;;;84.20;24.38;;;1.90;99.90;;;;;;5050024;28;20098;-51
2023/02/15 09:21:13;;;;;;;83.38;27.13;;;2.00;99.90;;;;;;5087361;28;20044;-50
2023/02/15 09:23:39;;;;;;;65.25;22.65;;;2.00;99.90;;;;;;5049921;28;20037;-52
2023/02/15 09:26:10;;;;;;;71.88;25.45;;;2.00;99.90;;;;;;5074725;28;20749;-52
2023/02/15 09:28:36;;;;;;;71.45;25.52;;;2.10;99.90;;;;;;5060586;28;20037;-67
2023/02/15 09:31:17;;;;;;;78.40;23.92;;;2.10;99.90;;;;;;5087933;28;20036;-51
2023/02/15 09:33:45;;;;;;;118.53;30.48;;;2.10;99.90;;;;;;5054211;28;20037;-58
2023/02/15 09:36:35;;;;;;;96.82;27.52;;;2.00;99.90;;;;;;5069095;28;20139;-58
2023/02/15 09:39:17;;;;;;;71.90;26.48;;;2.00;99.90;;;;;;5056256;28;20565;-58
2023/02/15 09:41:51;;;;;;;80.50;25.38;;;2.00;99.90;;;;;;5049616;28;20033;-57
2023/02/15 09:44:46;;;;;;;62.10;22.33;;;2.20;99.90;;;;;;5068569;28;20150;-58
2023/02/15 09:47:36;;;;;;;68.88;23.45;;;2.40;99.90;;;;;;5049645;28;20039;-58
2023/02/15 09:50:21;;;;;;;68.60;22.83;;;2.50;99.90;;;;;;5089185;28;20016;-58
2023/02/15 09:53:07;;;;;;;65.95;24.92;;;2.60;99.90;;;;;;5059272;28;20060;-58
2023/02/15 09:55:49;;;;;;;68.47;20.25;;;2.70;99.90;;;;;;5049340;28;20029;-55
2023/02/15 09:58:56;;;;;;;58.03;22.83;;;2.80;99.90;;;;;;5057050;28;20029;-58
2023/02/15 10:01:49;;;;;;;53.30;20.92;;;2.90;99.90;;;;;;5049101;28;20025;-58
2023/02/15 10:04:36;;;;;;;51.50;20.02;;;3.00;99.90;;;;;;5065244;28;20029;-58
2023/02/15 10:07:22;;;;;;;55.10;20.42;;;3.20;99.90;;;;;;5048286;28;20563;-59
2023/02/15 10:10:25;;;;;;;77.25;23.92;;;3.30;99.90;;;;;;5048861;28;20033;-58
2023/02/15 10:13:12;;;;;;;58.60;22.45;;;3.40;99.90;;;;;;5059702;28;20081;-59
2023/02/15 10:15:57;;;;;;;62.63;22.45;;;3.40;99.90;;;;;;5089013;28;20023;-58
2023/02/15 10:18:57;;;;;;;53.70;19.85;;;3.50;99.90;;;;;;5068400;28;20069;-57
2023/02/15 10:21:58;;;;;;;63.17;23.17;;;3.60;99.90;;;;;;5064764;28;20530;-58
2023/02/15 10:24:29;;;;;;;49.67;21.02;;;3.70;99.90;;;;;;5066210;28;20031;-58
2023/02/15 10:27:03;;;;;;;68.43;23.60;;;3.70;99.90;;;;;;5048609;28;20029;-58
2023/02/15 10:29:31;;;;;;;59.75;22.90;;;3.70;99.90;;;;;;5066824;28;20028;-58
2023/02/15 10:32:23;;;;;;;53.65;22.38;;;3.70;99.90;;;;;;5087922;28;20036;-58
2023/02/15 10:35:13;;;;;;;50.78;21.92;;;3.80;99.90;;;;;;5047182;28;20060;-59
2023/02/15 10:38:07;;;;;;;47.70;19.75;;;3.90;99.90;;;;;;5056272;28;20073;-58
2023/02/15 10:40:55;;;;;;;58.17;23.80;;;4.00;99.90;;;;;;5088717;28;20024;-58
2023/02/15 10:43:40;;;;;;;51.85;21.13;;;4.00;99.90;;;;;;5067764;28;20034;-59
2023/02/15 10:46:24;;;;;;;42.88;19.30;;;4.10;99.90;;;;;;5048231;28;20029;-59
2023/02/15 10:49:26;;;;;;;40.92;17.60;;;4.30;99.90;;;;;;5070481;28;20029;-58
2023/02/15 10:52:29;;;;;;;44.30;17.88;;;4.40;99.90;;;;;;5048283;28;20060;-59
2023/02/15 10:55:11;;;;;;;38.13;16.77;;;4.50;99.90;;;;;;5057564;28;20020;-60
2023/02/15 10:58:05;;;;;;;43.30;19.38;;;4.70;99.90;;;;;;5052922;28;20089;-58
2023/02/15 11:01:23;;;;;;;35.50;16.38;;;4.80;99.90;;;;;;5047129;28;20028;-59
2023/02/15 11:04:07;;;;;;;42.10;19.00;;;4.90;99.90;;;;;;5021571;28;20036;-58
2023/02/15 11:06:35;;;;;;;43.60;17.73;;;5.10;99.90;;;;;;5044184;28;20612;-55
2023/02/15 11:09:08;;;;;;;41.08;18.60;;;5.20;99.90;;;;;;5067808;28;20037;-55
2023/02/15 11:11:39;;;;;;;39.80;17.95;;;5.20;99.90;;;;;;5047034;28;20037;-55
2023/02/15 11:14:14;;;;;;;47.35;22.13;;;5.20;99.90;;;;;;5062335;28;20119;-53
2023/02/15 11:16:45;;;;;;;46.80;21.13;;;5.10;99.90;;;;;;5047127;28;20064;-50
2023/02/15 11:19:26;;;;;;;50.72;21.98;;;5.10;99.90;;;;;;5064135;28;20668;-52
2023/02/15 11:21:58;;;;;;;47.17;22.45;;;5.10;99.90;;;;;;5046797;28;20119;-50
2023/02/15 11:24:27;;;;;;;45.80;21.58;;;5.10;99.90;;;;;;5060933;28;20032;-49
2023/02/15 11:27:14;;;;;;;48.22;23.25;;;5.20;99.90;;;;;;5066721;28;20028;-48
2023/02/15 11:30:03;;;;;;;49.63;24.58;;;5.30;99.90;;;;;;5058860;28;20027;-49
2023/02/15 11:32:47;;;;;;;51.40;22.30;;;5.40;99.90;;;;;;5038439;28;20496;-51
2023/02/15 11:35:12;;;;;;;41.25;20.35;;;5.40;99.90;;;;;;5063208;28;20040;-50
2023/02/15 11:37:40;;;;;;;45.38;21.25;;;5.30;99.90;;;;;;5086232;28;20032;-48
2023/02/15 11:40:28;;;;;;;39.55;20.15;;;5.20;99.90;;;;;;5047820;28;20029;-48
2023/02/15 11:42:58;;;;;;;38.97;18.27;;;5.20;99.90;;;;;;5066489;28;20036;-50
2023/02/15 11:45:34;;;;;;;46.05;20.88;;;5.10;99.90;;;;;;5064965;28;20021;-48
2023/02/15 11:48:00;;;;;;;;;;;5.20;99.90;;;;;;5047158;28;20519;-52
2023/02/15 11:50:29;;;;;;;41.05;19.70;;;5.20;99.90;;;;;;5064799;28;19919;-48
2023/02/15 11:53:01;;;;;;;38.70;18.23;;;5.20;99.90;;;;;;5086429;28;20039;-48
2023/02/15 11:55:28;;;;;;;55.03;24.80;;;5.20;99.90;;;;;;5066595;28;20823;-46
2023/02/15 11:58:08;;;;;;;64.20;28.60;;;5.10;99.90;;;;;;5086093;28;20092;-49
2023/02/15 12:00:37;;;;;;;73.93;31.00;;;4.80;99.90;;;;;;5046856;28;20029;-47
2023/02/15 12:03:18;;;;;;;72.38;29.65;;;4.60;99.90;;;;;;5084393;28;20059;-47
2023/02/15 12:05:46;;;;;;;62.47;26.70;;;4.60;99.90;;;;;;5070346;28;20568;-47
2023/02/15 12:08:18;;;;;;;55.38;25.77;;;4.50;99.90;;;;;;5068833;28;20049;-47
2023/02/15 12:11:12;;;;;;;64.13;26.38;;;4.60;99.90;;;;;;5086153;28;20083;-49
2023/02/15 12:13:55;;;;;;;55.22;24.20;;;4.60;99.90;;;;;;5063236;28;20044;-50
2023/02/15 12:16:20;;;;;;;60.05;26.60;;;4.50;99.90;;;;;;5050201;28;20080;-52
2023/02/15 12:18:47;;;;;;;52.67;24.70;;;4.60;99.90;;;;;;5067781;28;20028;-48
2023/02/15 12:21:24;;;;;;;50.67;23.52;;;4.60;99.90;;;;;;5089292;28;20028;-47
2023/02/15 12:23:53;;;;;;;48.75;22.13;;;4.70;99.90;;;;;;5049996;28;20568;-51
2023/02/15 12:26:28;;;;;;;52.10;24.08;;;4.80;99.90;;;;;;5089672;28;20059;-49
2023/02/15 12:28:57;;;;;;;46.40;21.80;;;4.90;99.90;;;;;;5090209;28;20039;-50
2023/02/15 12:31:38;;;;;;;47.20;20.98;;;4.90;99.90;;;;;;5069714;28;20044;-45
2023/02/15 12:34:18;;;;;;;45.70;20.92;;;5.00;99.90;;;;;;5069544;28;20040;-53
2023/02/15 12:36:57;;;;;;;44.70;20.67;;;5.20;99.90;;;;;;5053702;28;20028;-52
2023/02/15 12:39:31;;;;;;;43.42;19.70;;;5.20;99.90;;;;;;5090193;28;20031;-47
2023/02/15 12:41:59;;;;;;;45.60;23.20;;;5.30;99.90;;;;;;5067971;28;20504;-50
2023/02/15 12:44:28;;;;;;;42.70;21.40;;;5.40;99.90;;;;;;5069768;28;20031;-52
2023/02/15 12:47:16;;;;;;;40.03;19.02;;;5.40;99.90;;;;;;5087304;28;20676;-47
2023/02/15 12:49:43;;;;;;;34.20;17.15;;;5.60;99.90;;;;;;5089946;28;20017;-51
2023/02/15 12:52:17;;;;;;;36.47;18.00;;;5.60;99.90;;;;;;5068051;28;20039;-50
2023/02/15 12:54:43;;;;;;;34.28;18.55;;;5.70;99.90;;;;;;5069668;28;20127;-49
2023/02/15 12:57:35;;;;;;;36.70;19.25;;;5.90;99.90;;;;;;5087096;28;20012;-48
2023/02/15 13:00:06;;;;;;;42.17;20.27;;;6.00;99.90;;;;;;5087397;28;20450;-51
2023/02/15 13:02:49;;;;;;;34.13;17.00;;;6.00;99.90;;;;;;5066255;28;20035;-49
2023/02/15 13:05:30;;;;;;;36.10;17.40;;;6.10;99.90;;;;;;5056318;28;20039;-46
2023/02/15 13:08:00;;;;;;;39.00;19.55;;;6.20;99.90;;;;;;5087397;28;20047;-48
2023/02/15 13:10:28;;;;;;;40.45;19.23;;;6.30;99.90;;;;;;5069644;28;20036;-51
2023/02/15 13:12:57;;;;;;;38.15;19.77;;;6.40;99.90;;;;;;5075620;28;20028;-51
2023/02/15 13:15:40;;;;;;;40.75;20.35;;;6.50;99.90;;;;;;5089733;28;20127;-49